Irving Johnson — WDB3153 — position and weather

sailwx.info

Track history (hours):
 
Tides and Currents Weather Stations Pressure Air Temp Water Temp Dewpoint Dewpoint Depression Visibility Wind Speed Wind Dir Waves Ship Positions

Irving Johnson (United States)

Ship's website: http://www.lamitopsail.org/

Owner: Los Angeles Maritime Institute, San Pedro, CA. More information available from US FCC via Universal Licensing System and Coast Guard Vessel Documentation Center.

Last reported at 2017-Oct-22 02:06 UTC. Time now 2017-Oct-22 15:36 UTC.
Position N 33°44' W 118°17'.

; draft 4 m.

Type: Sailing vessel. MMSI: 369725000.

Date/timePositionNaut miles runAvg speedWind from/ knotsBaromVisibWave heightAir tempDewpointWater temp
2017-Oct-22 02:06N 33°44' W 118°17'0 0.0
2017-Oct-20 21:43N 33°44' W 118°17'0 0.0
2017-Oct-20 21:26N 33°44' W 118°17'0 0.0
2017-Oct-20 20:47N 33°44' W 118°17'0 0.0
2017-Oct-20 20:30N 33°44' W 118°17'0 0.0
2017-Oct-20 19:59N 33°44' W 118°17'0 0.4
2017-Oct-20 19:30N 33°44' W 118°17'1 2.7
2017-Oct-20 19:00N 33°43' W 118°16'2 3.0
2017-Oct-20 18:29N 33°41' W 118°15'1 2.8
2017-Oct-20 18:00N 33°43' W 118°15'1 1.7
2017-Oct-20 17:30N 33°43' W 118°16'1 1.3
2017-Oct-20 16:57N 33°44' W 118°17'0 0.1
2017-Oct-20 16:29N 33°44' W 118°17'0 0.0
2017-Oct-19 20:28N 33°44' W 118°17'0 0.0
2017-Oct-19 20:00N 33°44' W 118°17'1 2.1
2017-Oct-19 19:30N 33°43' W 118°16'1 2.5
2017-Oct-19 19:00N 33°43' W 118°14'1 2.1
2017-Oct-19 18:30N 33°43' W 118°16'1 2.7
2017-Oct-19 18:00N 33°44' W 118°17'0 0.0
2017-Oct-19 17:30N 33°44' W 118°17'0 0.0
2017-Oct-19 16:59N 33°44' W 118°17'0 0.0
2017-Oct-19 16:30N 33°44' W 118°17'0 0.0
2017-Oct-19 15:59N 33°44' W 118°17'0 0.0
2017-Oct-18 20:33N 33°44' W 118°17'0 0.0
2017-Oct-18 20:30N 33°44' W 118°17'0 0.5
2017-Oct-18 20:00N 33°44' W 118°16'0 0.5
2017-Oct-18 19:30N 33°44' W 118°16'1 1.3
2017-Oct-18 19:00N 33°43' W 118°16'1 2.4
2017-Oct-18 18:30N 33°42' W 118°15'1 2.5
2017-Oct-18 18:00N 33°43' W 118°16'1 1.2
2017-Oct-18 17:07N 33°44' W 118°17'0 0.0
2017-Oct-18 17:00N 33°44' W 118°17'0 0.0
2017-Oct-17 21:05N 33°44' W 118°17'0 0.0
2017-Oct-17 20:59N 33°44' W 118°17'0 0.0
2017-Oct-17 20:30N 33°44' W 118°17'0 0.7
2017-Oct-17 19:58N 33°44' W 118°16'3 6.6
2017-Oct-17 19:30N 33°41' W 118°15'2 2.6
2017-Oct-17 18:52N 33°39' W 118°14'2 4.5
2017-Oct-17 18:30N 33°41' W 118°14'2 4.3
2017-Oct-17 18:00N 33°43' W 118°16'1 1.9
2017-Oct-17 17:30N 33°44' W 118°16'0 0.6
2017-Oct-17 16:56N 33°44' W 118°17'0 0.0
2017-Oct-17 16:19N 33°44' W 118°17'0 0.0
2017-Oct-16 21:17N 33°44' W 118°17'0 0.0
2017-Oct-16 21:01N 33°44' W 118°17'0 0.0
2017-Oct-16 20:30N 33°44' W 118°17'0 0.4
2017-Oct-16 20:00N 33°44' W 118°16'2 3.1
2017-Oct-16 19:30N 33°43' W 118°15'1 1.9
2017-Oct-16 19:00N 33°42' W 118°15'0 0.3
2017-Oct-16 18:30N 33°42' W 118°15'1 2.3
2017-Oct-16 18:00N 33°43' W 118°16'1 2.6
2017-Oct-16 17:30N 33°44' W 118°17'0 0.2
2017-Oct-16 16:40N 33°44' W 118°17'0 0.0
2017-Oct-16 16:22N 33°44' W 118°17'0 0.0
2017-Oct-14 23:03N 33°44' W 118°17'0 0.0
2017-Oct-14 22:57N 33°44' W 118°17'0 0.6
2017-Oct-14 22:30N 33°44' W 118°16'3 5.4
2017-Oct-14 21:58N 33°41' W 118°15'2 3.2
2017-Oct-14 21:30N 33°43' W 118°15'1 1.8
2017-Oct-14 21:00N 33°44' W 118°16'0 0.2
2017-Oct-14 20:30N 33°43' W 118°16'1 1.3
2017-Oct-14 20:00N 33°44' W 118°16'0 0.4
2017-Oct-14 19:28N 33°44' W 118°17'0 0.0
2017-Oct-13 00:20N 33°44' W 118°17'0 0.0
2017-Oct-12 23:53N 33°44' W 118°17'0 0.0
2017-Oct-12 23:30N 33°44' W 118°17'0 0.7
2017-Oct-12 23:00N 33°44' W 118°16'2 3.4
2017-Oct-12 22:29N 33°42' W 118°15'2 3.4
2017-Oct-12 21:56N 33°41' W 118°16'1 2.7
2017-Oct-12 21:28N 33°42' W 118°17'1 1.7
2017-Oct-12 21:00N 33°42' W 118°17'1 2.7
2017-Oct-12 20:30N 33°43' W 118°16'  
Track history (hours):
 
Tides and Currents Weather Stations Pressure Air Temp Water Temp Dewpoint Dewpoint Depression Visibility Wind Speed Wind Dir Waves Ship Positions

Irving Johnson (United States)

Ship's website: http://www.lamitopsail.org/

Owner: Los Angeles Maritime Institute, San Pedro, CA. More information available from US FCC via Universal Licensing System and Coast Guard Vessel Documentation Center.

Last reported at 2017-Oct-22 02:06 UTC. Time now 2017-Oct-22 15:36 UTC.
Position N 33°44' W 118°17'.

; draft 4 m.

Type: Sailing vessel. MMSI: 369725000.

Date/timePositionNaut miles runAvg speedWind from/ knotsBaromVisibWave heightAir tempDewpointWater temp
2017-Oct-22 02:06N 33°44' W 118°17'0 0.0
2017-Oct-20 21:43N 33°44' W 118°17'0 0.0
2017-Oct-20 21:26N 33°44' W 118°17'0 0.0
2017-Oct-20 20:47N 33°44' W 118°17'0 0.0
2017-Oct-20 20:30N 33°44' W 118°17'0 0.0
2017-Oct-20 19:59N 33°44' W 118°17'0 0.4
2017-Oct-20 19:30N 33°44' W 118°17'1 2.7
2017-Oct-20 19:00N 33°43' W 118°16'2 3.0
2017-Oct-20 18:29N 33°41' W 118°15'1 2.8
2017-Oct-20 18:00N 33°43' W 118°15'1 1.7
2017-Oct-20 17:30N 33°43' W 118°16'1 1.3
2017-Oct-20 16:57N 33°44' W 118°17'0 0.1
2017-Oct-20 16:29N 33°44' W 118°17'0 0.0
2017-Oct-19 20:28N 33°44' W 118°17'0 0.0
2017-Oct-19 20:00N 33°44' W 118°17'1 2.1
2017-Oct-19 19:30N 33°43' W 118°16'1 2.5
2017-Oct-19 19:00N 33°43' W 118°14'1 2.1
2017-Oct-19 18:30N 33°43' W 118°16'1 2.7
2017-Oct-19 18:00N 33°44' W 118°17'0 0.0
2017-Oct-19 17:30N 33°44' W 118°17'0 0.0
2017-Oct-19 16:59N 33°44' W 118°17'0 0.0
2017-Oct-19 16:30N 33°44' W 118°17'0 0.0
2017-Oct-19 15:59N 33°44' W 118°17'0 0.0
2017-Oct-18 20:33N 33°44' W 118°17'0 0.0
2017-Oct-18 20:30N 33°44' W 118°17'0 0.5
2017-Oct-18 20:00N 33°44' W 118°16'0 0.5
2017-Oct-18 19:30N 33°44' W 118°16'1 1.3
2017-Oct-18 19:00N 33°43' W 118°16'1 2.4
2017-Oct-18 18:30N 33°42' W 118°15'1 2.5
2017-Oct-18 18:00N 33°43' W 118°16'1 1.2
2017-Oct-18 17:07N 33°44' W 118°17'0 0.0
2017-Oct-18 17:00N 33°44' W 118°17'0 0.0
2017-Oct-17 21:05N 33°44' W 118°17'0 0.0
2017-Oct-17 20:59N 33°44' W 118°17'0 0.0
2017-Oct-17 20:30N 33°44' W 118°17'0 0.7
2017-Oct-17 19:58N 33°44' W 118°16'3 6.6
2017-Oct-17 19:30N 33°41' W 118°15'2 2.6
2017-Oct-17 18:52N 33°39' W 118°14'2 4.5
2017-Oct-17 18:30N 33°41' W 118°14'2 4.3
2017-Oct-17 18:00N 33°43' W 118°16'1 1.9
2017-Oct-17 17:30N 33°44' W 118°16'0 0.6
2017-Oct-17 16:56N 33°44' W 118°17'0 0.0
2017-Oct-17 16:19N 33°44' W 118°17'0 0.0
2017-Oct-16 21:17N 33°44' W 118°17'0 0.0
2017-Oct-16 21:01N 33°44' W 118°17'0 0.0
2017-Oct-16 20:30N 33°44' W 118°17'0 0.4
2017-Oct-16 20:00N 33°44' W 118°16'2 3.1
2017-Oct-16 19:30N 33°43' W 118°15'1 1.9
2017-Oct-16 19:00N 33°42' W 118°15'0 0.3
2017-Oct-16 18:30N 33°42' W 118°15'1 2.3
2017-Oct-16 18:00N 33°43' W 118°16'1 2.6
2017-Oct-16 17:30N 33°44' W 118°17'0 0.2
2017-Oct-16 16:40N 33°44' W 118°17'0 0.0
2017-Oct-16 16:22N 33°44' W 118°17'0 0.0
2017-Oct-14 23:03N 33°44' W 118°17'0 0.0
2017-Oct-14 22:57N 33°44' W 118°17'0 0.6
2017-Oct-14 22:30N 33°44' W 118°16'3 5.4
2017-Oct-14 21:58N 33°41' W 118°15'2 3.2
2017-Oct-14 21:30N 33°43' W 118°15'1 1.8
2017-Oct-14 21:00N 33°44' W 118°16'0 0.2
2017-Oct-14 20:30N 33°43' W 118°16'1 1.3
2017-Oct-14 20:00N 33°44' W 118°16'0 0.4
2017-Oct-14 19:28N 33°44' W 118°17'0 0.0
2017-Oct-13 00:20N 33°44' W 118°17'0 0.0
2017-Oct-12 23:53N 33°44' W 118°17'0 0.0
2017-Oct-12 23:30N 33°44' W 118°17'0 0.7
2017-Oct-12 23:00N 33°44' W 118°16'2 3.4
2017-Oct-12 22:29N 33°42' W 118°15'2 3.4
2017-Oct-12 21:56N 33°41' W 118°16'1 2.7
2017-Oct-12 21:28N 33°42' W 118°17'1 1.7
2017-Oct-12 21:00N 33°42' W 118°17'1 2.7
2017-Oct-12 20:30N 33°43' W 118°16'  

Dump ship's entire track history